createdAt,value
2022-09-11T00:01:52.182Z,6.53
2022-09-11T00:04:54.805Z,5.22
2022-09-11T00:07:56.890Z,5.93
2022-09-11T00:17:07.047Z,3.45
2022-09-11T00:20:09.448Z,7.15
2022-09-11T00:23:11.333Z,5.38
2022-09-11T00:26:13.222Z,7.32
2022-09-11T00:29:15.096Z,3.75
2022-09-11T00:32:19.115Z,4.88
2022-09-11T00:35:21.321Z,6.38
2022-09-11T00:38:23.204Z,4.70
2022-09-11T00:41:37.602Z,5.93
2022-09-11T00:44:39.544Z,5.93
2022-09-11T00:47:42.559Z,6.15
2022-09-11T00:50:44.841Z,8.43
2022-09-11T00:56:50.775Z,4.95
2022-09-11T00:59:55.788Z,4.65
2022-09-11T01:02:58.426Z,4.10
2022-09-11T01:06:01.145Z,4.93
2022-09-11T01:09:04.049Z,5.38
2022-09-11T01:18:32.890Z,4.85
2022-09-11T01:21:53.590Z,5.47
2022-09-11T01:25:39.890Z,6.15
2022-09-11T01:29:10.884Z,4.60
2022-09-11T01:32:23.737Z,4.82
2022-09-11T01:35:44.672Z,6.70
2022-09-11T01:38:47.753Z,5.05
2022-09-11T01:45:01.201Z,5.70
2022-09-11T01:48:04.082Z,4.85
2022-09-11T01:51:09.697Z,4.43
2022-09-11T01:54:16.678Z,8.43
2022-09-11T01:57:26.491Z,4.55
2022-09-11T02:00:32.058Z,4.22
2022-09-11T02:03:39.545Z,7.32
2022-09-11T02:06:59.703Z,4.43
2022-09-11T02:13:29.111Z,5.32
2022-09-11T02:16:53.160Z,5.97
2022-09-11T02:19:57.092Z,6.28
2022-09-11T02:22:59.177Z,5.88
2022-09-11T02:29:03.717Z,5.38
2022-09-11T02:32:06.858Z,5.72
2022-09-11T02:35:09.914Z,4.95
2022-09-11T02:38:25.091Z,6.50
2022-09-11T02:41:59.515Z,5.90
2022-09-11T02:45:20.735Z,5.47
2022-09-11T02:49:03.095Z,5.07
2022-09-11T02:52:18.624Z,7.45
2022-09-11T02:55:25.336Z,6.97
2022-09-11T02:58:39.048Z,9.20
2022-09-11T03:01:52.420Z,7.07
2022-09-11T03:04:57.674Z,6.68
2022-09-11T03:07:59.775Z,7.50
2022-09-11T03:11:01.676Z,6.28
2022-09-11T03:14:04.984Z,7.47
2022-09-11T03:17:07.264Z,6.88
2022-09-11T03:20:11.309Z,6.20
2022-09-11T03:23:14.096Z,5.70
2022-09-11T03:26:19.713Z,5.18
2022-09-11T03:29:23.110Z,7.80
2022-09-11T03:35:31.988Z,6.88
2022-09-11T03:38:33.841Z,6.40
2022-09-11T03:41:35.995Z,5.30
2022-09-11T03:44:40.333Z,6.50
2022-09-11T03:47:42.410Z,5.93
2022-09-11T03:53:53.690Z,7.05
2022-09-11T03:56:56.180Z,6.57
2022-09-11T03:59:58.039Z,7.88
2022-09-11T04:02:59.917Z,5.38
2022-09-11T04:06:10.343Z,7.15
2022-09-11T04:09:12.720Z,7.75
2022-09-11T04:12:14.739Z,9.50
2022-09-11T04:15:16.926Z,6.03
2022-09-11T04:18:19.071Z,4.95
2022-09-11T04:21:21.035Z,5.45
2022-09-11T04:24:26.601Z,5.13
2022-09-11T04:27:28.590Z,5.47
2022-09-11T04:30:30.481Z,8.60
2022-09-11T04:33:32.416Z,6.35
2022-09-11T04:36:34.411Z,6.38
2022-09-11T04:39:36.915Z,8.27
2022-09-11T04:42:38.916Z,6.70
2022-09-11T04:45:40.857Z,7.85
2022-09-11T04:48:53.492Z,7.38
2022-09-11T04:52:03.086Z,5.75
2022-09-11T04:55:05.593Z,11.18
2022-09-11T04:58:07.476Z,7.03
2022-09-11T05:01:15.079Z,6.28
2022-09-11T05:04:21.695Z,4.63
2022-09-11T05:07:26.253Z,9.15
2022-09-11T05:10:30.354Z,10.02
2022-09-11T05:13:36.822Z,5.15
2022-09-11T05:16:40.129Z,6.32
2022-09-11T05:19:44.915Z,5.63
2022-09-11T05:25:49.071Z,6.60
2022-09-11T05:28:59.855Z,5.88
2022-09-11T05:32:02.897Z,5.95
2022-09-11T05:35:07.557Z,7.63
2022-09-11T05:38:10.195Z,6.90
2022-09-11T05:41:13.548Z,6.43
2022-09-11T05:44:15.409Z,7.75
2022-09-11T05:47:17.920Z,7.10
2022-09-11T05:50:23.662Z,7.78
2022-09-11T05:56:34.024Z,6.82
2022-09-11T05:59:40.238Z,7.25
2022-09-11T06:02:42.640Z,8.20
2022-09-11T06:05:44.996Z,7.15
2022-09-11T06:08:47.332Z,8.57
2022-09-11T06:14:51.860Z,6.25
2022-09-11T06:17:53.930Z,8.00
2022-09-11T06:21:04.750Z,7.00
2022-09-11T06:24:16.696Z,6.53
2022-09-11T06:27:18.650Z,7.60
2022-09-11T06:30:25.278Z,6.40
2022-09-11T06:33:30.539Z,6.45
2022-09-11T06:36:32.443Z,6.45
2022-09-11T06:39:38.160Z,8.65
2022-09-11T06:42:40.596Z,11.05
2022-09-11T06:48:45.989Z,7.00
2022-09-11T06:51:48.634Z,8.60
2022-09-11T06:54:50.402Z,8.77
2022-09-11T06:57:53.170Z,8.90
2022-09-11T07:01:07.804Z,9.13
2022-09-11T07:04:10.217Z,7.63
2022-09-11T07:07:12.228Z,7.05
2022-09-11T07:10:17.471Z,6.88
2022-09-11T07:13:24.360Z,7.55
2022-09-11T07:16:27.020Z,8.05
2022-09-11T07:19:30.367Z,8.35
2022-09-11T07:22:33.592Z,7.18
2022-09-11T07:25:37.072Z,8.68
2022-09-11T07:28:39.994Z,7.35
2022-09-11T07:31:42.061Z,7.18
2022-09-11T07:34:45.291Z,7.97
2022-09-11T07:37:51.104Z,8.05
2022-09-11T07:40:54.707Z,7.85
2022-09-11T07:43:59.767Z,6.95
2022-09-11T07:47:04.312Z,9.07
2022-09-11T07:50:11.942Z,9.07
2022-09-11T07:56:24.720Z,9.98
2022-09-11T07:59:29.261Z,6.93
2022-09-11T08:02:31.568Z,8.10
2022-09-11T08:05:33.589Z,6.43
2022-09-11T08:11:40.306Z,7.25
2022-09-11T08:14:42.774Z,6.63
2022-09-11T08:17:54.962Z,7.68
2022-09-11T08:21:07.626Z,7.47
2022-09-11T08:24:16.116Z,6.75
2022-09-11T08:27:20.056Z,5.40
2022-09-11T08:30:22.240Z,7.28
2022-09-11T08:33:24.431Z,6.70
2022-09-11T08:36:27.257Z,8.32
2022-09-11T08:39:29.336Z,6.10
2022-09-11T08:42:35.000Z,6.93
2022-09-11T08:45:37.167Z,8.63
2022-09-11T08:48:56.284Z,6.82
2022-09-11T08:52:01.885Z,7.10
2022-09-11T08:55:05.407Z,5.85
2022-09-11T08:58:31.370Z,6.07
2022-09-11T09:01:46.324Z,7.05
2022-09-11T09:05:13.180Z,5.93
2022-09-11T09:08:36.665Z,5.78
2022-09-11T09:12:03.357Z,6.53
2022-09-11T09:15:36.535Z,5.80
2022-09-11T09:18:50.909Z,6.15
2022-09-11T09:22:02.856Z,5.50
2022-09-11T09:25:12.489Z,5.75
2022-09-11T09:28:43.573Z,5.93
2022-09-11T09:31:48.281Z,6.85
2022-09-11T09:34:55.302Z,7.78
2022-09-11T09:37:57.943Z,6.15
2022-09-11T09:41:22.580Z,6.70
2022-09-11T09:44:41.157Z,6.45
2022-09-11T09:47:44.100Z,6.20
2022-09-11T09:50:47.404Z,7.35
2022-09-11T09:53:58.606Z,6.30
2022-09-11T09:57:04.972Z,7.00
2022-09-11T10:00:09.919Z,6.93
2022-09-11T10:03:18.938Z,4.68
2022-09-11T10:06:23.455Z,5.05
2022-09-11T10:09:30.294Z,5.10
2022-09-11T10:12:32.521Z,5.68
2022-09-11T10:15:43.491Z,5.35
2022-09-11T10:18:45.553Z,6.68
2022-09-11T10:21:47.437Z,7.13
2022-09-11T10:25:00.590Z,6.00
2022-09-11T10:28:07.145Z,7.13
2022-09-11T10:31:14.938Z,5.72
2022-09-11T10:34:19.067Z,6.53
2022-09-11T10:37:29.050Z,6.55
2022-09-11T10:40:31.191Z,7.00
2022-09-11T10:43:43.485Z,6.97
2022-09-11T10:46:45.449Z,7.50
2022-09-11T10:49:47.589Z,7.03
2022-09-11T11:03:22.623Z,8.65
2022-09-11T11:06:46.218Z,7.28
2022-09-11T11:10:14.669Z,6.32
2022-09-11T11:13:39.539Z,6.47
2022-09-11T11:17:07.715Z,6.93
2022-09-11T11:20:37.018Z,6.35
2022-09-11T11:23:45.950Z,6.30
2022-09-11T11:27:08.642Z,5.63
2022-09-11T11:30:22.411Z,6.40
2022-09-11T11:36:51.100Z,5.85
2022-09-11T11:40:28.252Z,5.22
2022-09-11T11:43:34.417Z,6.72
2022-09-11T11:46:43.496Z,7.50
2022-09-11T11:50:23.045Z,6.28
2022-09-11T11:53:38.951Z,7.07
2022-09-11T11:56:51.036Z,6.28
2022-09-11T12:00:06.140Z,6.97
2022-09-11T12:03:18.241Z,5.70
2022-09-11T12:06:20.188Z,5.70
2022-09-11T12:09:22.215Z,6.00
2022-09-11T12:12:27.759Z,6.45
2022-09-11T12:15:31.323Z,6.88
2022-09-11T12:18:33.747Z,6.05
2022-09-11T12:21:40.613Z,6.13
2022-09-11T12:24:48.434Z,6.50
2022-09-11T12:28:41.468Z,5.78
2022-09-11T12:31:52.258Z,6.00
2022-09-11T12:35:11.355Z,5.20
2022-09-11T12:38:50.255Z,5.10
2022-09-11T12:41:52.252Z,6.97
2022-09-11T12:44:54.170Z,4.63
2022-09-11T12:48:10.006Z,6.28
2022-09-11T12:51:42.007Z,5.28
2022-09-11T12:54:43.995Z,5.50
2022-09-11T12:57:46.197Z,5.07
2022-09-11T13:00:50.931Z,5.82
2022-09-11T13:04:01.395Z,6.00
2022-09-11T13:07:06.487Z,5.00
2022-09-11T13:10:24.503Z,4.38
2022-09-11T13:13:36.351Z,5.63
2022-09-11T13:16:44.986Z,4.57
2022-09-11T13:19:46.827Z,5.30
2022-09-11T13:22:52.737Z,4.60
2022-09-11T13:25:58.331Z,7.32
2022-09-11T13:29:01.076Z,6.72
2022-09-11T13:32:13.461Z,5.43
2022-09-11T13:35:23.896Z,5.10
2022-09-11T13:38:28.954Z,5.95
2022-09-11T13:41:36.744Z,4.63
2022-09-11T13:47:44.022Z,5.10
2022-09-11T13:50:46.208Z,6.20
2022-09-11T13:53:58.676Z,6.53
2022-09-11T13:57:00.745Z,5.03
2022-09-11T14:00:02.710Z,5.35
2022-09-11T14:03:25.903Z,4.50
2022-09-11T14:06:27.761Z,5.95
2022-09-11T14:09:29.864Z,4.47
2022-09-11T14:12:34.568Z,5.38
2022-09-11T14:15:43.714Z,6.75
2022-09-11T14:19:03.177Z,5.45
2022-09-11T14:22:24.814Z,5.38
2022-09-11T14:25:27.069Z,6.03
2022-09-11T14:28:41.993Z,5.85
2022-09-11T14:31:43.968Z,4.15
2022-09-11T14:34:46.433Z,4.38
2022-09-11T14:37:48.409Z,5.97
2022-09-11T14:40:57.707Z,5.95
2022-09-11T14:43:59.565Z,5.75
2022-09-11T14:47:01.753Z,6.45
2022-09-11T14:50:03.863Z,6.60
2022-09-11T14:53:05.862Z,5.22
2022-09-11T14:56:07.769Z,5.05
2022-09-11T15:02:21.523Z,5.82
2022-09-11T15:05:23.412Z,6.18
2022-09-11T15:08:25.950Z,5.90
2022-09-11T15:11:27.994Z,6.20
2022-09-11T15:14:54.431Z,6.13
2022-09-11T15:17:52.272Z,7.35
2022-09-11T15:20:54.960Z,6.40
2022-09-11T15:27:03.208Z,6.55
2022-09-11T15:30:07.733Z,6.93
2022-09-11T15:33:10.590Z,5.00
2022-09-11T15:36:12.433Z,5.47
2022-09-11T15:39:16.279Z,5.38
2022-09-11T15:42:18.695Z,5.22
2022-09-11T15:45:20.609Z,5.30
2022-09-11T15:51:24.311Z,6.00
2022-09-11T15:57:29.823Z,5.50
2022-09-11T16:00:33.888Z,6.45
2022-09-11T16:03:35.772Z,6.13
2022-09-11T16:06:40.854Z,5.43
2022-09-11T16:09:42.709Z,7.93
2022-09-11T16:12:44.662Z,7.22
2022-09-11T16:18:48.577Z,6.18
2022-09-11T16:24:52.735Z,4.13
2022-09-11T16:27:59.548Z,5.30
2022-09-11T16:31:01.889Z,6.65
2022-09-11T16:34:04.560Z,4.97
2022-09-11T16:37:06.627Z,5.55
2022-09-11T16:43:21.379Z,5.55
2022-09-11T16:46:26.053Z,5.15
2022-09-11T16:49:28.022Z,4.95
2022-09-11T16:52:29.882Z,5.90
2022-09-11T16:58:34.210Z,5.50
2022-09-11T17:01:36.416Z,4.80
2022-09-11T17:04:38.350Z,6.43
2022-09-11T17:10:46.546Z,5.72
2022-09-11T17:13:50.926Z,4.53
2022-09-11T17:16:53.712Z,4.57
2022-09-11T17:22:58.309Z,5.07
2022-09-11T17:26:00.471Z,5.10
2022-09-11T17:32:26.594Z,7.00
2022-09-11T17:35:28.744Z,6.88
2022-09-11T17:38:31.581Z,6.72
2022-09-11T17:41:34.055Z,8.00
2022-09-11T17:44:36.238Z,7.38
2022-09-11T17:47:38.798Z,6.80
2022-09-11T17:50:40.703Z,7.85
2022-09-11T17:53:46.606Z,8.60
2022-09-11T17:56:48.499Z,7.07
2022-09-11T17:59:50.427Z,10.13
2022-09-11T18:05:54.367Z,6.72
2022-09-11T18:12:02.108Z,9.30
2022-09-11T18:15:04.469Z,10.32
2022-09-11T18:18:06.362Z,11.10
2022-09-11T18:21:10.751Z,9.35
2022-09-11T18:24:12.857Z,8.20
2022-09-11T18:27:14.794Z,8.50
2022-09-11T18:30:17.614Z,9.93
2022-09-11T18:33:19.440Z,9.48
2022-09-11T18:36:24.936Z,16.05
2022-09-11T18:39:27.827Z,7.90
2022-09-11T18:42:29.720Z,7.53
2022-09-11T18:45:31.559Z,8.60
2022-09-11T18:48:33.498Z,8.88
2022-09-11T18:51:36.231Z,11.73
2022-09-11T18:54:38.078Z,8.05
2022-09-11T18:57:42.339Z,8.95
2022-09-11T19:00:46.001Z,10.27
2022-09-11T19:06:50.066Z,9.38
2022-09-11T19:12:53.751Z,10.85
2022-09-11T19:16:00.370Z,14.02
2022-09-11T19:19:02.434Z,8.65
2022-09-11T19:22:04.297Z,8.75
2022-09-11T19:25:07.266Z,9.57
2022-09-11T19:28:09.278Z,7.43
2022-09-11T19:34:14.036Z,8.80
2022-09-11T19:37:16.337Z,8.05
2022-09-11T19:40:18.251Z,8.07
2022-09-11T19:43:20.423Z,8.82
2022-09-11T19:49:25.219Z,9.88
2022-09-11T19:52:29.796Z,7.55
2022-09-11T19:55:34.755Z,9.85
2022-09-11T19:58:39.131Z,8.90
2022-09-11T20:01:41.115Z,9.00
2022-09-11T20:04:42.964Z,9.45
2022-09-11T20:07:44.993Z,8.65
2022-09-11T20:10:47.980Z,11.30
2022-09-11T20:13:49.811Z,12.07
2022-09-11T20:16:51.873Z,7.32
2022-09-11T20:19:56.679Z,9.60
2022-09-11T20:23:00.310Z,12.82
2022-09-11T20:26:16.816Z,7.68
2022-09-11T20:29:19.115Z,11.50
2022-09-11T20:32:20.965Z,9.40
2022-09-11T20:35:22.837Z,7.50
2022-09-11T20:38:24.870Z,7.40
2022-09-11T20:41:30.342Z,6.88
2022-09-11T20:44:36.777Z,9.93
2022-09-11T20:47:39.103Z,9.43
2022-09-11T20:50:41.050Z,7.43
2022-09-11T20:53:43.180Z,7.57
2022-09-11T20:59:47.026Z,8.32
2022-09-11T21:02:48.946Z,7.90
2022-09-11T21:05:54.242Z,6.93
2022-09-11T21:08:58.463Z,8.93
2022-09-11T21:12:00.365Z,8.50
2022-09-11T21:15:03.904Z,10.68
2022-09-11T21:18:06.445Z,10.40
2022-09-11T21:21:08.341Z,10.65
2022-09-11T21:27:15.306Z,8.60
2022-09-11T21:30:17.175Z,9.30
2022-09-11T21:33:19.174Z,7.53
2022-09-11T21:36:21.176Z,9.13
2022-09-11T21:39:23.279Z,9.23
2022-09-11T21:42:25.581Z,13.57
2022-09-11T21:45:27.398Z,8.57
2022-09-11T21:48:32.431Z,9.30
2022-09-11T21:51:37.429Z,8.68
2022-09-11T21:54:39.303Z,9.40
2022-09-11T21:57:41.244Z,8.13
2022-09-11T22:00:43.911Z,8.93
2022-09-11T22:03:46.924Z,11.10
2022-09-11T22:06:48.825Z,8.45
2022-09-11T22:09:50.675Z,9.55
2022-09-11T22:12:52.672Z,8.35
2022-09-11T22:15:54.653Z,10.80
2022-09-11T22:18:56.619Z,8.45
2022-09-11T22:21:58.597Z,11.73
2022-09-11T22:25:00.429Z,11.55
2022-09-11T22:28:07.057Z,13.43
2022-09-11T22:31:15.662Z,8.63
2022-09-11T22:34:18.354Z,8.80
2022-09-11T22:37:20.258Z,9.93
2022-09-11T22:40:22.070Z,8.13
2022-09-11T22:43:23.946Z,12.88
2022-09-11T22:46:25.860Z,7.97
2022-09-11T22:49:27.704Z,9.73
2022-09-11T22:52:29.559Z,8.80
2022-09-11T22:55:31.384Z,9.45
2022-09-11T22:58:33.377Z,9.43
2022-09-11T23:01:36.199Z,8.40
2022-09-11T23:04:38.036Z,9.30
2022-09-11T23:07:39.862Z,9.77
2022-09-11T23:10:43.142Z,7.47
2022-09-11T23:13:45.089Z,11.60
2022-09-11T23:16:47.035Z,12.13
2022-09-11T23:19:48.869Z,11.27
2022-09-11T23:22:52.928Z,9.95
2022-09-11T23:25:54.706Z,10.00
2022-09-11T23:28:58.553Z,8.50
2022-09-11T23:32:00.478Z,7.53
2022-09-11T23:35:02.329Z,9.57
2022-09-11T23:38:07.281Z,10.00
2022-09-11T23:41:09.315Z,10.15
2022-09-11T23:44:11.252Z,11.15
2022-09-11T23:47:13.075Z,8.00
2022-09-11T23:50:15.989Z,9.30
2022-09-11T23:53:17.802Z,9.80
2022-09-11T23:56:20.106Z,12.05
